Browder, Kentucky
Current Conditions -  °F | °C
As of 10:35 PM on Wednesday 22 Oct 2014 (Local Time) from K2I0 Reporting Station
Clear Clear  
Wind Chill: 44°   Ceiling: Unl
Heat Index: 44°   Visibility: 10mi
Dew Point: 42°   Wind: 0mph
Humidity: 94%   Direction: NA
Pressure: 30.24"   Gusts: NA
Location:  37.2°N, 87.04°W
Report Text: K2I0 230335Z AUTO 00000KT 10SM CLR 07/06 A3024 RMK AO2 T00650056
Loading
Personal Weather Stations






























Interactive Weather Map
Tropical Storm Tracking
New forecast layout! Learn more

10-Day Weather Forecast

Advertisements
Track Severe Weather on mobile